sensor_id;sensor_type;location;lat;lon;timestamp;P1;durP1;ratioP1;P2;durP2;ratioP2
17451;SDS011;8843;48.838;9.324;2023-01-08T00:00:06;5.40;;;4.60;;
17451;SDS011;8843;48.838;9.324;2023-01-08T00:02:33;4.63;;;3.90;;
17451;SDS011;8843;48.838;9.324;2023-01-08T00:05:00;4.30;;;3.77;;
17451;SDS011;8843;48.838;9.324;2023-01-08T00:07:27;5.60;;;4.83;;
17451;SDS011;8843;48.838;9.324;2023-01-08T00:09:54;6.97;;;4.60;;
17451;SDS011;8843;48.838;9.324;2023-01-08T00:12:21;5.00;;;4.43;;
17451;SDS011;8843;48.838;9.324;2023-01-08T00:14:49;5.63;;;4.50;;
17451;SDS011;8843;48.838;9.324;2023-01-08T00:17:16;5.03;;;4.40;;
17451;SDS011;8843;48.838;9.324;2023-01-08T00:19:42;5.47;;;4.23;;
17451;SDS011;8843;48.838;9.324;2023-01-08T00:22:09;4.67;;;4.17;;
17451;SDS011;8843;48.838;9.324;2023-01-08T00:24:36;5.57;;;4.00;;
17451;SDS011;8843;48.838;9.324;2023-01-08T00:27:03;5.00;;;4.40;;
17451;SDS011;8843;48.838;9.324;2023-01-08T00:29:30;4.67;;;4.13;;
17451;SDS011;8843;48.838;9.324;2023-01-08T00:31:58;7.33;;;5.03;;
17451;SDS011;8843;48.838;9.324;2023-01-08T00:34:25;5.63;;;4.27;;
17451;SDS011;8843;48.838;9.324;2023-01-08T00:36:52;4.67;;;4.20;;
17451;SDS011;8843;48.838;9.324;2023-01-08T00:39:18;5.10;;;4.60;;
17451;SDS011;8843;48.838;9.324;2023-01-08T00:41:45;6.47;;;5.23;;
17451;SDS011;8843;48.838;9.324;2023-01-08T00:44:13;5.23;;;4.60;;
17451;SDS011;8843;48.838;9.324;2023-01-08T00:46:40;4.23;;;3.83;;
17451;SDS011;8843;48.838;9.324;2023-01-08T00:49:08;5.40;;;4.57;;
17451;SDS011;8843;48.838;9.324;2023-01-08T00:51:35;5.17;;;4.40;;
17451;SDS011;8843;48.838;9.324;2023-01-08T00:54:02;6.63;;;4.90;;
17451;SDS011;8843;48.838;9.324;2023-01-08T00:56:29;6.30;;;4.13;;
17451;SDS011;8843;48.838;9.324;2023-01-08T00:58:56;6.20;;;4.50;;
17451;SDS011;8843;48.838;9.324;2023-01-08T01:01:23;5.33;;;4.23;;
17451;SDS011;8843;48.838;9.324;2023-01-08T01:03:50;7.20;;;5.30;;
17451;SDS011;8843;48.838;9.324;2023-01-08T01:06:18;5.37;;;4.87;;
17451;SDS011;8843;48.838;9.324;2023-01-08T01:08:45;5.47;;;4.43;;
17451;SDS011;8843;48.838;9.324;2023-01-08T01:11:15;6.20;;;4.90;;
17451;SDS011;8843;48.838;9.324;2023-01-08T01:13:44;5.73;;;4.67;;
17451;SDS011;8843;48.838;9.324;2023-01-08T01:16:11;6.97;;;4.90;;
17451;SDS011;8843;48.838;9.324;2023-01-08T01:18:38;7.00;;;4.87;;
17451;SDS011;8843;48.838;9.324;2023-01-08T01:21:08;6.17;;;4.47;;
17451;SDS011;8843;48.838;9.324;2023-01-08T01:23:38;5.80;;;4.20;;
17451;SDS011;8843;48.838;9.324;2023-01-08T01:26:05;5.20;;;4.20;;
17451;SDS011;8843;48.838;9.324;2023-01-08T01:28:39;4.93;;;4.43;;
17451;SDS011;8843;48.838;9.324;2023-01-08T01:31:07;6.33;;;4.30;;
17451;SDS011;8843;48.838;9.324;2023-01-08T01:33:37;5.83;;;4.50;;
17451;SDS011;8843;48.838;9.324;2023-01-08T01:36:04;6.03;;;4.83;;
17451;SDS011;8843;48.838;9.324;2023-01-08T01:38:31;5.87;;;4.13;;
17451;SDS011;8843;48.838;9.324;2023-01-08T01:41:00;6.40;;;4.83;;
17451;SDS011;8843;48.838;9.324;2023-01-08T01:43:37;7.97;;;5.07;;
17451;SDS011;8843;48.838;9.324;2023-01-08T01:46:11;8.23;;;5.27;;
17451;SDS011;8843;48.838;9.324;2023-01-08T01:48:43;7.87;;;5.33;;
17451;SDS011;8843;48.838;9.324;2023-01-08T01:51:12;6.03;;;5.27;;
17451;SDS011;8843;48.838;9.324;2023-01-08T01:53:39;7.20;;;5.23;;
17451;SDS011;8843;48.838;9.324;2023-01-08T01:56:08;7.07;;;5.40;;
17451;SDS011;8843;48.838;9.324;2023-01-08T01:58:35;7.43;;;6.00;;
17451;SDS011;8843;48.838;9.324;2023-01-08T02:01:03;6.57;;;5.60;;
17451;SDS011;8843;48.838;9.324;2023-01-08T02:03:33;6.43;;;5.07;;
17451;SDS011;8843;48.838;9.324;2023-01-08T02:06:02;6.97;;;5.67;;
17451;SDS011;8843;48.838;9.324;2023-01-08T02:08:41;6.33;;;5.50;;
17451;SDS011;8843;48.838;9.324;2023-01-08T02:11:19;5.40;;;4.90;;
17451;SDS011;8843;48.838;9.324;2023-01-08T02:13:54;6.13;;;4.83;;
17451;SDS011;8843;48.838;9.324;2023-01-08T02:16:26;8.33;;;5.20;;
17451;SDS011;8843;48.838;9.324;2023-01-08T02:19:01;7.70;;;5.00;;
17451;SDS011;8843;48.838;9.324;2023-01-08T02:21:35;5.33;;;4.57;;
17451;SDS011;8843;48.838;9.324;2023-01-08T02:24:26;6.50;;;4.63;;
17451;SDS011;8843;48.838;9.324;2023-01-08T02:27:06;5.43;;;4.37;;
17451;SDS011;8843;48.838;9.324;2023-01-08T02:29:34;5.17;;;4.57;;
17451;SDS011;8843;48.838;9.324;2023-01-08T02:32:01;5.00;;;4.40;;
17451;SDS011;8843;48.838;9.324;2023-01-08T02:34:29;5.77;;;4.20;;
17451;SDS011;8843;48.838;9.324;2023-01-08T02:36:56;4.90;;;4.40;;
17451;SDS011;8843;48.838;9.324;2023-01-08T02:39:45;5.40;;;4.20;;
17451;SDS011;8843;48.838;9.324;2023-01-08T02:42:28;5.57;;;4.23;;
17451;SDS011;8843;48.838;9.324;2023-01-08T02:45:04;5.80;;;4.70;;
17451;SDS011;8843;48.838;9.324;2023-01-08T02:47:37;6.33;;;4.30;;
17451;SDS011;8843;48.838;9.324;2023-01-08T02:50:10;7.27;;;5.13;;
17451;SDS011;8843;48.838;9.324;2023-01-08T02:52:43;5.77;;;4.47;;
17451;SDS011;8843;48.838;9.324;2023-01-08T02:55:13;5.27;;;4.20;;
17451;SDS011;8843;48.838;9.324;2023-01-08T02:57:43;5.33;;;4.03;;
17451;SDS011;8843;48.838;9.324;2023-01-08T03:00:11;4.90;;;4.13;;
17451;SDS011;8843;48.838;9.324;2023-01-08T03:02:38;4.47;;;4.00;;
17451;SDS011;8843;48.838;9.324;2023-01-08T03:05:10;5.43;;;4.10;;
17451;SDS011;8843;48.838;9.324;2023-01-08T03:07:43;4.33;;;3.93;;
17451;SDS011;8843;48.838;9.324;2023-01-08T03:10:10;6.23;;;4.50;;
17451;SDS011;8843;48.838;9.324;2023-01-08T03:12:42;6.93;;;4.77;;
17451;SDS011;8843;48.838;9.324;2023-01-08T03:15:18;6.37;;;4.60;;
17451;SDS011;8843;48.838;9.324;2023-01-08T03:17:49;4.97;;;3.47;;
17451;SDS011;8843;48.838;9.324;2023-01-08T03:20:21;4.40;;;4.00;;
17451;SDS011;8843;48.838;9.324;2023-01-08T03:22:50;7.87;;;4.90;;
17451;SDS011;8843;48.838;9.324;2023-01-08T03:25:21;4.97;;;3.90;;
17451;SDS011;8843;48.838;9.324;2023-01-08T03:27:53;4.73;;;4.13;;
17451;SDS011;8843;48.838;9.324;2023-01-08T03:30:22;5.33;;;4.30;;
17451;SDS011;8843;48.838;9.324;2023-01-08T03:32:51;5.30;;;4.00;;
17451;SDS011;8843;48.838;9.324;2023-01-08T03:35:21;4.73;;;3.90;;
17451;SDS011;8843;48.838;9.324;2023-01-08T03:37:50;3.80;;;3.50;;
17451;SDS011;8843;48.838;9.324;2023-01-08T03:40:22;4.33;;;3.77;;
17451;SDS011;8843;48.838;9.324;2023-01-08T03:42:53;5.70;;;3.97;;
17451;SDS011;8843;48.838;9.324;2023-01-08T03:45:22;4.73;;;3.97;;
17451;SDS011;8843;48.838;9.324;2023-01-08T03:47:50;7.30;;;4.20;;
17451;SDS011;8843;48.838;9.324;2023-01-08T03:50:20;4.47;;;3.60;;
17451;SDS011;8843;48.838;9.324;2023-01-08T03:52:50;4.30;;;3.90;;
17451;SDS011;8843;48.838;9.324;2023-01-08T03:55:17;5.57;;;4.40;;
17451;SDS011;8843;48.838;9.324;2023-01-08T03:57:44;5.47;;;4.00;;
17451;SDS011;8843;48.838;9.324;2023-01-08T04:00:13;5.17;;;4.30;;
17451;SDS011;8843;48.838;9.324;2023-01-08T04:02:40;4.87;;;4.40;;
17451;SDS011;8843;48.838;9.324;2023-01-08T04:05:07;5.00;;;4.50;;
17451;SDS011;8843;48.838;9.324;2023-01-08T04:07:35;4.20;;;3.73;;
17451;SDS011;8843;48.838;9.324;2023-01-08T04:10:02;4.23;;;3.83;;
17451;SDS011;8843;48.838;9.324;2023-01-08T04:12:30;4.93;;;4.40;;
17451;SDS011;8843;48.838;9.324;2023-01-08T04:14:56;7.23;;;4.40;;
17451;SDS011;8843;48.838;9.324;2023-01-08T04:17:25;4.17;;;3.77;;
17451;SDS011;8843;48.838;9.324;2023-01-08T04:19:52;4.67;;;3.97;;
17451;SDS011;8843;48.838;9.324;2023-01-08T04:22:18;5.70;;;3.70;;
17451;SDS011;8843;48.838;9.324;2023-01-08T04:24:45;4.43;;;3.73;;
17451;SDS011;8843;48.838;9.324;2023-01-08T04:27:12;3.83;;;3.27;;
17451;SDS011;8843;48.838;9.324;2023-01-08T04:29:39;5.17;;;3.87;;
17451;SDS011;8843;48.838;9.324;2023-01-08T04:32:06;7.53;;;3.83;;
17451;SDS011;8843;48.838;9.324;2023-01-08T04:34:34;4.77;;;3.67;;
17451;SDS011;8843;48.838;9.324;2023-01-08T04:37:01;6.00;;;3.67;;
17451;SDS011;8843;48.838;9.324;2023-01-08T04:39:28;4.07;;;3.67;;
17451;SDS011;8843;48.838;9.324;2023-01-08T04:41:55;5.17;;;4.10;;
17451;SDS011;8843;48.838;9.324;2023-01-08T04:44:21;4.43;;;4.00;;
17451;SDS011;8843;48.838;9.324;2023-01-08T04:46:48;6.93;;;3.70;;
17451;SDS011;8843;48.838;9.324;2023-01-08T04:49:15;5.10;;;4.37;;
17451;SDS011;8843;48.838;9.324;2023-01-08T04:51:43;4.47;;;3.97;;
17451;SDS011;8843;48.838;9.324;2023-01-08T04:54:10;9.47;;;4.23;;
17451;SDS011;8843;48.838;9.324;2023-01-08T04:56:37;4.43;;;4.00;;
17451;SDS011;8843;48.838;9.324;2023-01-08T04:59:04;4.47;;;3.87;;
17451;SDS011;8843;48.838;9.324;2023-01-08T05:01:31;4.80;;;3.60;;
17451;SDS011;8843;48.838;9.324;2023-01-08T05:03:59;4.13;;;3.73;;
17451;SDS011;8843;48.838;9.324;2023-01-08T05:06:26;4.13;;;3.30;;
17451;SDS011;8843;48.838;9.324;2023-01-08T05:08:55;4.97;;;3.50;;
17451;SDS011;8843;48.838;9.324;2023-01-08T05:11:22;3.40;;;3.10;;
17451;SDS011;8843;48.838;9.324;2023-01-08T05:13:50;4.70;;;3.53;;
17451;SDS011;8843;48.838;9.324;2023-01-08T05:16:17;4.00;;;3.30;;
17451;SDS011;8843;48.838;9.324;2023-01-08T05:18:45;4.03;;;3.47;;
17451;SDS011;8843;48.838;9.324;2023-01-08T05:21:12;4.57;;;3.30;;
17451;SDS011;8843;48.838;9.324;2023-01-08T05:23:39;4.03;;;3.00;;
17451;SDS011;8843;48.838;9.324;2023-01-08T05:26:10;4.07;;;2.90;;
17451;SDS011;8843;48.838;9.324;2023-01-08T05:28:37;4.17;;;3.17;;
17451;SDS011;8843;48.838;9.324;2023-01-08T05:31:04;3.40;;;2.80;;
17451;SDS011;8843;48.838;9.324;2023-01-08T05:33:31;3.00;;;2.67;;
17451;SDS011;8843;48.838;9.324;2023-01-08T05:35:58;5.57;;;2.43;;
17451;SDS011;8843;48.838;9.324;2023-01-08T05:38:25;3.20;;;2.30;;
17451;SDS011;8843;48.838;9.324;2023-01-08T05:40:52;2.93;;;2.50;;
17451;SDS011;8843;48.838;9.324;2023-01-08T05:43:20;2.93;;;2.10;;
17451;SDS011;8843;48.838;9.324;2023-01-08T05:45:47;2.23;;;1.90;;
17451;SDS011;8843;48.838;9.324;2023-01-08T05:48:14;2.50;;;1.90;;
17451;SDS011;8843;48.838;9.324;2023-01-08T05:50:41;2.30;;;2.10;;
17451;SDS011;8843;48.838;9.324;2023-01-08T05:53:08;1.60;;;1.50;;
17451;SDS011;8843;48.838;9.324;2023-01-08T05:55:35;2.33;;;1.73;;
17451;SDS011;8843;48.838;9.324;2023-01-08T05:58:02;2.50;;;1.80;;
17451;SDS011;8843;48.838;9.324;2023-01-08T06:00:31;2.13;;;1.63;;
17451;SDS011;8843;48.838;9.324;2023-01-08T06:02:59;5.70;;;1.80;;
17451;SDS011;8843;48.838;9.324;2023-01-08T06:05:26;3.33;;;1.60;;
17451;SDS011;8843;48.838;9.324;2023-01-08T06:07:53;1.60;;;1.50;;
17451;SDS011;8843;48.838;9.324;2023-01-08T06:10:20;1.43;;;1.33;;
17451;SDS011;8843;48.838;9.324;2023-01-08T06:12:46;1.73;;;1.43;;
17451;SDS011;8843;48.838;9.324;2023-01-08T06:15:13;2.20;;;1.60;;
17451;SDS011;8843;48.838;9.324;2023-01-08T06:17:42;2.03;;;1.40;;
17451;SDS011;8843;48.838;9.324;2023-01-08T06:20:09;1.50;;;1.40;;
17451;SDS011;8843;48.838;9.324;2023-01-08T06:22:36;1.83;;;1.60;;
17451;SDS011;8843;48.838;9.324;2023-01-08T06:25:03;1.33;;;1.20;;
17451;SDS011;8843;48.838;9.324;2023-01-08T06:27:31;1.53;;;1.20;;
17451;SDS011;8843;48.838;9.324;2023-01-08T06:29:58;1.30;;;1.30;;
17451;SDS011;8843;48.838;9.324;2023-01-08T06:32:25;2.00;;;1.27;;
17451;SDS011;8843;48.838;9.324;2023-01-08T06:34:53;1.83;;;1.30;;
17451;SDS011;8843;48.838;9.324;2023-01-08T06:37:20;1.40;;;1.30;;
17451;SDS011;8843;48.838;9.324;2023-01-08T06:39:47;1.10;;;1.10;;
17451;SDS011;8843;48.838;9.324;2023-01-08T06:42:13;1.40;;;1.30;;
17451;SDS011;8843;48.838;9.324;2023-01-08T06:44:40;1.20;;;1.10;;
17451;SDS011;8843;48.838;9.324;2023-01-08T06:47:07;1.07;;;1.07;;
17451;SDS011;8843;48.838;9.324;2023-01-08T06:49:34;1.73;;;1.30;;
17451;SDS011;8843;48.838;9.324;2023-01-08T06:52:02;1.30;;;1.20;;
17451;SDS011;8843;48.838;9.324;2023-01-08T06:54:29;1.23;;;1.20;;
17451;SDS011;8843;48.838;9.324;2023-01-08T06:56:56;1.37;;;1.27;;
17451;SDS011;8843;48.838;9.324;2023-01-08T06:59:23;1.50;;;1.40;;
17451;SDS011;8843;48.838;9.324;2023-01-08T07:01:50;0.97;;;0.97;;
17451;SDS011;8843;48.838;9.324;2023-01-08T07:04:17;1.10;;;1.10;;
17451;SDS011;8843;48.838;9.324;2023-01-08T07:06:44;1.20;;;1.00;;
17451;SDS011;8843;48.838;9.324;2023-01-08T07:09:12;0.90;;;0.90;;
17451;SDS011;8843;48.838;9.324;2023-01-08T07:11:40;1.00;;;1.00;;
17451;SDS011;8843;48.838;9.324;2023-01-08T07:14:07;1.20;;;1.10;;
17451;SDS011;8843;48.838;9.324;2023-01-08T07:16:34;1.73;;;1.00;;
17451;SDS011;8843;48.838;9.324;2023-01-08T07:19:03;2.17;;;1.33;;
17451;SDS011;8843;48.838;9.324;2023-01-08T07:21:29;1.60;;;1.40;;
17451;SDS011;8843;48.838;9.324;2023-01-08T07:23:56;1.40;;;1.20;;
17451;SDS011;8843;48.838;9.324;2023-01-08T07:26:25;1.37;;;1.23;;
17451;SDS011;8843;48.838;9.324;2023-01-08T07:28:52;1.30;;;1.20;;
17451;SDS011;8843;48.838;9.324;2023-01-08T07:31:19;1.20;;;1.20;;
17451;SDS011;8843;48.838;9.324;2023-01-08T07:33:46;1.43;;;1.33;;
17451;SDS011;8843;48.838;9.324;2023-01-08T07:36:13;1.27;;;1.20;;
17451;SDS011;8843;48.838;9.324;2023-01-08T07:38:40;1.37;;;1.27;;
17451;SDS011;8843;48.838;9.324;2023-01-08T07:41:07;1.40;;;1.30;;
17451;SDS011;8843;48.838;9.324;2023-01-08T07:43:36;1.33;;;1.23;;
17451;SDS011;8843;48.838;9.324;2023-01-08T07:46:03;1.20;;;1.20;;
17451;SDS011;8843;48.838;9.324;2023-01-08T07:48:30;1.17;;;1.17;;
17451;SDS011;8843;48.838;9.324;2023-01-08T07:51:00;1.20;;;1.20;;
17451;SDS011;8843;48.838;9.324;2023-01-08T07:53:28;1.50;;;1.23;;
17451;SDS011;8843;48.838;9.324;2023-01-08T07:55:57;1.00;;;1.00;;
17451;SDS011;8843;48.838;9.324;2023-01-08T07:58:25;1.10;;;1.10;;
17451;SDS011;8843;48.838;9.324;2023-01-08T08:00:54;1.20;;;1.10;;
17451;SDS011;8843;48.838;9.324;2023-01-08T08:03:21;1.93;;;1.40;;
17451;SDS011;8843;48.838;9.324;2023-01-08T08:05:48;1.30;;;1.20;;
17451;SDS011;8843;48.838;9.324;2023-01-08T08:08:15;1.70;;;1.17;;
17451;SDS011;8843;48.838;9.324;2023-01-08T08:10:43;1.17;;;1.07;;
17451;SDS011;8843;48.838;9.324;2023-01-08T08:13:10;1.20;;;1.20;;
17451;SDS011;8843;48.838;9.324;2023-01-08T08:15:38;2.20;;;1.23;;
17451;SDS011;8843;48.838;9.324;2023-01-08T08:18:06;0.97;;;0.97;;
17451;SDS011;8843;48.838;9.324;2023-01-08T08:20:34;1.40;;;1.30;;
17451;SDS011;8843;48.838;9.324;2023-01-08T08:23:01;2.03;;;1.27;;
17451;SDS011;8843;48.838;9.324;2023-01-08T08:25:29;1.80;;;1.70;;
17451;SDS011;8843;48.838;9.324;2023-01-08T08:27:56;1.47;;;1.37;;
17451;SDS011;8843;48.838;9.324;2023-01-08T08:30:24;2.00;;;1.50;;
17451;SDS011;8843;48.838;9.324;2023-01-08T08:32:52;3.90;;;1.53;;
17451;SDS011;8843;48.838;9.324;2023-01-08T08:35:21;1.00;;;1.00;;
17451;SDS011;8843;48.838;9.324;2023-01-08T08:37:47;1.30;;;1.20;;
17451;SDS011;8843;48.838;9.324;2023-01-08T08:40:14;1.50;;;1.40;;
17451;SDS011;8843;48.838;9.324;2023-01-08T08:42:41;2.17;;;1.30;;
17451;SDS011;8843;48.838;9.324;2023-01-08T08:45:08;1.37;;;1.27;;
17451;SDS011;8843;48.838;9.324;2023-01-08T08:47:35;1.47;;;1.13;;
17451;SDS011;8843;48.838;9.324;2023-01-08T08:50:03;1.53;;;1.43;;
17451;SDS011;8843;48.838;9.324;2023-01-08T08:52:32;1.40;;;1.30;;
17451;SDS011;8843;48.838;9.324;2023-01-08T08:55:01;2.17;;;1.20;;
17451;SDS011;8843;48.838;9.324;2023-01-08T08:57:28;1.60;;;1.10;;
17451;SDS011;8843;48.838;9.324;2023-01-08T08:59:55;1.40;;;1.30;;
17451;SDS011;8843;48.838;9.324;2023-01-08T09:02:22;1.53;;;1.43;;
17451;SDS011;8843;48.838;9.324;2023-01-08T09:04:49;1.50;;;1.40;;
17451;SDS011;8843;48.838;9.324;2023-01-08T09:07:16;1.23;;;1.13;;
17451;SDS011;8843;48.838;9.324;2023-01-08T09:09:44;1.50;;;1.40;;
17451;SDS011;8843;48.838;9.324;2023-01-08T09:12:11;1.50;;;1.40;;
17451;SDS011;8843;48.838;9.324;2023-01-08T09:14:38;1.50;;;1.20;;
17451;SDS011;8843;48.838;9.324;2023-01-08T09:17:05;2.70;;;1.20;;
17451;SDS011;8843;48.838;9.324;2023-01-08T09:19:32;1.17;;;1.10;;
17451;SDS011;8843;48.838;9.324;2023-01-08T09:22:00;1.17;;;1.10;;
17451;SDS011;8843;48.838;9.324;2023-01-08T09:24:27;1.30;;;1.20;;
17451;SDS011;8843;48.838;9.324;2023-01-08T09:26:57;1.57;;;1.30;;
17451;SDS011;8843;48.838;9.324;2023-01-08T09:29:24;1.10;;;1.00;;
17451;SDS011;8843;48.838;9.324;2023-01-08T09:31:51;1.33;;;1.27;;
17451;SDS011;8843;48.838;9.324;2023-01-08T09:34:18;1.20;;;1.10;;
17451;SDS011;8843;48.838;9.324;2023-01-08T09:36:45;2.50;;;1.40;;
17451;SDS011;8843;48.838;9.324;2023-01-08T09:39:12;3.50;;;1.17;;
17451;SDS011;8843;48.838;9.324;2023-01-08T09:41:40;1.33;;;1.30;;
17451;SDS011;8843;48.838;9.324;2023-01-08T09:44:13;1.13;;;1.03;;
17451;SDS011;8843;48.838;9.324;2023-01-08T09:46:42;1.40;;;1.30;;
17451;SDS011;8843;48.838;9.324;2023-01-08T09:49:10;2.03;;;1.20;;
17451;SDS011;8843;48.838;9.324;2023-01-08T09:51:40;1.50;;;1.40;;
17451;SDS011;8843;48.838;9.324;2023-01-08T09:54:08;1.40;;;1.30;;
17451;SDS011;8843;48.838;9.324;2023-01-08T09:56:40;1.80;;;1.30;;
17451;SDS011;8843;48.838;9.324;2023-01-08T09:59:09;1.37;;;1.27;;
17451;SDS011;8843;48.838;9.324;2023-01-08T10:01:41;1.27;;;1.17;;
17451;SDS011;8843;48.838;9.324;2023-01-08T10:04:12;1.20;;;1.10;;
17451;SDS011;8843;48.838;9.324;2023-01-08T10:06:41;1.10;;;1.10;;
17451;SDS011;8843;48.838;9.324;2023-01-08T10:09:14;0.90;;;0.90;;
17451;SDS011;8843;48.838;9.324;2023-01-08T10:11:42;1.00;;;1.00;;
17451;SDS011;8843;48.838;9.324;2023-01-08T10:14:15;3.57;;;1.40;;
17451;SDS011;8843;48.838;9.324;2023-01-08T10:16:48;0.93;;;0.93;;
17451;SDS011;8843;48.838;9.324;2023-01-08T10:19:19;1.20;;;1.10;;
17451;SDS011;8843;48.838;9.324;2023-01-08T10:21:46;1.30;;;1.20;;
17451;SDS011;8843;48.838;9.324;2023-01-08T10:24:14;1.53;;;1.43;;
17451;SDS011;8843;48.838;9.324;2023-01-08T10:26:40;1.97;;;1.47;;
17451;SDS011;8843;48.838;9.324;2023-01-08T10:29:08;1.67;;;1.57;;
17451;SDS011;8843;48.838;9.324;2023-01-08T10:31:43;1.20;;;1.10;;
17451;SDS011;8843;48.838;9.324;2023-01-08T10:34:17;1.10;;;1.00;;
17451;SDS011;8843;48.838;9.324;2023-01-08T10:36:53;0.97;;;0.97;;
17451;SDS011;8843;48.838;9.324;2023-01-08T10:39:22;1.30;;;1.20;;
17451;SDS011;8843;48.838;9.324;2023-01-08T10:41:51;0.90;;;0.90;;
17451;SDS011;8843;48.838;9.324;2023-01-08T10:44:21;1.30;;;1.20;;
17451;SDS011;8843;48.838;9.324;2023-01-08T10:46:53;2.03;;;1.40;;
17451;SDS011;8843;48.838;9.324;2023-01-08T10:49:26;1.40;;;1.23;;
17451;SDS011;8843;48.838;9.324;2023-01-08T10:51:57;2.53;;;1.53;;
17451;SDS011;8843;48.838;9.324;2023-01-08T10:54:26;1.33;;;1.10;;
17451;SDS011;8843;48.838;9.324;2023-01-08T10:56:57;1.10;;;1.00;;
17451;SDS011;8843;48.838;9.324;2023-01-08T10:59:24;1.43;;;1.33;;
17451;SDS011;8843;48.838;9.324;2023-01-08T11:01:53;1.07;;;1.07;;
17451;SDS011;8843;48.838;9.324;2023-01-08T11:04:22;1.40;;;1.30;;
17451;SDS011;8843;48.838;9.324;2023-01-08T11:06:53;1.10;;;1.10;;
17451;SDS011;8843;48.838;9.324;2023-01-08T11:09:25;1.37;;;1.20;;
17451;SDS011;8843;48.838;9.324;2023-01-08T11:11:56;1.33;;;1.00;;
17451;SDS011;8843;48.838;9.324;2023-01-08T11:14:25;1.03;;;1.00;;
17451;SDS011;8843;48.838;9.324;2023-01-08T11:16:55;1.10;;;1.10;;
17451;SDS011;8843;48.838;9.324;2023-01-08T11:19:25;1.43;;;1.20;;
17451;SDS011;8843;48.838;9.324;2023-01-08T11:21:55;1.23;;;1.13;;
17451;SDS011;8843;48.838;9.324;2023-01-08T11:24:27;1.00;;;1.00;;
17451;SDS011;8843;48.838;9.324;2023-01-08T11:26:58;1.10;;;1.10;;
17451;SDS011;8843;48.838;9.324;2023-01-08T11:29:30;1.20;;;1.10;;
17451;SDS011;8843;48.838;9.324;2023-01-08T11:32:10;1.13;;;1.10;;
17451;SDS011;8843;48.838;9.324;2023-01-08T11:34:52;1.03;;;1.03;;
17451;SDS011;8843;48.838;9.324;2023-01-08T11:37:23;1.20;;;1.10;;
17451;SDS011;8843;48.838;9.324;2023-01-08T11:39:52;1.43;;;1.33;;
17451;SDS011;8843;48.838;9.324;2023-01-08T11:42:26;3.33;;;1.10;;
17451;SDS011;8843;48.838;9.324;2023-01-08T11:45:10;0.80;;;0.80;;
17451;SDS011;8843;48.838;9.324;2023-01-08T11:50:48;1.07;;;0.97;;
17451;SDS011;8843;48.838;9.324;2023-01-08T11:53:23;0.90;;;0.90;;
17451;SDS011;8843;48.838;9.324;2023-01-08T11:56:00;1.30;;;1.20;;
17451;SDS011;8843;48.838;9.324;2023-01-08T11:58:41;0.93;;;0.93;;
17451;SDS011;8843;48.838;9.324;2023-01-08T12:01:33;1.20;;;1.10;;
17451;SDS011;8843;48.838;9.324;2023-01-08T12:04:14;1.00;;;1.00;;
17451;SDS011;8843;48.838;9.324;2023-01-08T12:07:03;1.00;;;1.00;;
17451;SDS011;8843;48.838;9.324;2023-01-08T12:09:37;0.93;;;0.93;;
17451;SDS011;8843;48.838;9.324;2023-01-08T12:12:10;0.87;;;0.87;;
17451;SDS011;8843;48.838;9.324;2023-01-08T12:14:51;1.00;;;1.00;;
17451;SDS011;8843;48.838;9.324;2023-01-08T12:17:33;1.10;;;1.10;;
17451;SDS011;8843;48.838;9.324;2023-01-08T12:20:16;1.03;;;0.93;;
17451;SDS011;8843;48.838;9.324;2023-01-08T12:22:51;1.23;;;1.00;;
17451;SDS011;8843;48.838;9.324;2023-01-08T12:25:29;0.93;;;0.93;;
17451;SDS011;8843;48.838;9.324;2023-01-08T12:28:21;0.90;;;0.90;;
17451;SDS011;8843;48.838;9.324;2023-01-08T12:31:05;0.90;;;0.90;;
17451;SDS011;8843;48.838;9.324;2023-01-08T12:33:42;1.60;;;1.20;;
17451;SDS011;8843;48.838;9.324;2023-01-08T12:36:15;0.90;;;0.90;;
17451;SDS011;8843;48.838;9.324;2023-01-08T12:38:47;0.97;;;0.97;;
17451;SDS011;8843;48.838;9.324;2023-01-08T12:41:18;1.00;;;1.00;;
17451;SDS011;8843;48.838;9.324;2023-01-08T12:43:47;1.13;;;1.03;;
17451;SDS011;8843;48.838;9.324;2023-01-08T12:46:18;1.00;;;1.00;;
17451;SDS011;8843;48.838;9.324;2023-01-08T12:48:50;0.70;;;0.70;;
17451;SDS011;8843;48.838;9.324;2023-01-08T12:51:25;2.10;;;1.07;;
17451;SDS011;8843;48.838;9.324;2023-01-08T12:53:57;0.80;;;0.80;;
17451;SDS011;8843;48.838;9.324;2023-01-08T12:56:36;0.90;;;0.90;;
17451;SDS011;8843;48.838;9.324;2023-01-08T12:59:10;0.90;;;0.90;;
17451;SDS011;8843;48.838;9.324;2023-01-08T13:01:46;1.13;;;1.03;;
17451;SDS011;8843;48.838;9.324;2023-01-08T13:04:16;0.77;;;0.77;;
17451;SDS011;8843;48.838;9.324;2023-01-08T13:06:53;0.80;;;0.80;;
17451;SDS011;8843;48.838;9.324;2023-01-08T13:09:26;0.80;;;0.80;;
17451;SDS011;8843;48.838;9.324;2023-01-08T13:11:54;1.53;;;0.80;;
17451;SDS011;8843;48.838;9.324;2023-01-08T13:14:23;1.00;;;1.00;;
17451;SDS011;8843;48.838;9.324;2023-01-08T13:16:59;1.17;;;1.07;;
17451;SDS011;8843;48.838;9.324;2023-01-08T13:19:29;0.60;;;0.60;;
17451;SDS011;8843;48.838;9.324;2023-01-08T13:22:01;0.97;;;0.97;;
17451;SDS011;8843;48.838;9.324;2023-01-08T13:24:29;1.97;;;1.00;;
17451;SDS011;8843;48.838;9.324;2023-01-08T13:27:09;0.95;;;0.90;;
17451;SDS011;8843;48.838;9.324;2023-01-08T13:30:00;1.57;;;1.37;;
17451;SDS011;8843;48.838;9.324;2023-01-08T13:35:18;1.20;;;1.10;;
17451;SDS011;8843;48.838;9.324;2023-01-08T13:37:49;1.13;;;1.07;;
17451;SDS011;8843;48.838;9.324;2023-01-08T13:43:03;0.87;;;0.87;;
17451;SDS011;8843;48.838;9.324;2023-01-08T13:45:36;1.30;;;1.10;;
17451;SDS011;8843;48.838;9.324;2023-01-08T13:48:03;0.80;;;0.80;;
17451;SDS011;8843;48.838;9.324;2023-01-08T13:50:31;0.80;;;0.80;;
17451;SDS011;8843;48.838;9.324;2023-01-08T13:53:00;0.90;;;0.90;;
17451;SDS011;8843;48.838;9.324;2023-01-08T13:55:30;1.07;;;1.07;;
17451;SDS011;8843;48.838;9.324;2023-01-08T13:57:59;1.20;;;1.00;;
17451;SDS011;8843;48.838;9.324;2023-01-08T14:00:30;1.40;;;1.30;;
17451;SDS011;8843;48.838;9.324;2023-01-08T14:03:19;1.60;;;1.10;;
17451;SDS011;8843;48.838;9.324;2023-01-08T14:05:47;0.80;;;0.80;;
17451;SDS011;8843;48.838;9.324;2023-01-08T14:08:25;1.00;;;1.00;;
17451;SDS011;8843;48.838;9.324;2023-01-08T14:10:52;0.70;;;0.70;;
17451;SDS011;8843;48.838;9.324;2023-01-08T14:13:20;1.07;;;1.00;;
17451;SDS011;8843;48.838;9.324;2023-01-08T14:15:51;0.90;;;0.90;;
17451;SDS011;8843;48.838;9.324;2023-01-08T14:18:27;1.83;;;0.90;;
17451;SDS011;8843;48.838;9.324;2023-01-08T14:20:54;1.17;;;1.10;;
17451;SDS011;8843;48.838;9.324;2023-01-08T14:23:22;1.10;;;1.00;;
17451;SDS011;8843;48.838;9.324;2023-01-08T14:25:52;1.10;;;1.00;;
17451;SDS011;8843;48.838;9.324;2023-01-08T14:28:20;1.47;;;1.37;;
17451;SDS011;8843;48.838;9.324;2023-01-08T14:30:48;0.90;;;0.90;;
17451;SDS011;8843;48.838;9.324;2023-01-08T14:33:16;1.07;;;0.90;;
17451;SDS011;8843;48.838;9.324;2023-01-08T14:35:45;0.80;;;0.80;;
17451;SDS011;8843;48.838;9.324;2023-01-08T14:38:15;1.40;;;1.00;;
17451;SDS011;8843;48.838;9.324;2023-01-08T14:40:43;0.63;;;0.63;;
17451;SDS011;8843;48.838;9.324;2023-01-08T14:43:17;0.93;;;0.90;;
17451;SDS011;8843;48.838;9.324;2023-01-08T14:45:46;0.90;;;0.90;;
17451;SDS011;8843;48.838;9.324;2023-01-08T14:48:16;0.80;;;0.80;;
17451;SDS011;8843;48.838;9.324;2023-01-08T14:50:59;1.20;;;1.00;;
17451;SDS011;8843;48.838;9.324;2023-01-08T14:53:29;0.77;;;0.77;;
17451;SDS011;8843;48.838;9.324;2023-01-08T14:55:58;0.80;;;0.80;;
17451;SDS011;8843;48.838;9.324;2023-01-08T14:58:28;1.40;;;1.07;;
17451;SDS011;8843;48.838;9.324;2023-01-08T15:01:05;1.30;;;1.20;;
17451;SDS011;8843;48.838;9.324;2023-01-08T15:03:35;1.10;;;1.00;;
17451;SDS011;8843;48.838;9.324;2023-01-08T15:06:03;1.10;;;1.10;;
17451;SDS011;8843;48.838;9.324;2023-01-08T15:08:33;1.10;;;1.00;;
17451;SDS011;8843;48.838;9.324;2023-01-08T15:11:01;1.27;;;1.00;;
17451;SDS011;8843;48.838;9.324;2023-01-08T15:13:32;1.30;;;1.10;;
17451;SDS011;8843;48.838;9.324;2023-01-08T15:16:04;1.00;;;1.00;;
17451;SDS011;8843;48.838;9.324;2023-01-08T15:18:40;1.17;;;1.00;;
17451;SDS011;8843;48.838;9.324;2023-01-08T15:21:09;2.10;;;1.90;;
17451;SDS011;8843;48.838;9.324;2023-01-08T15:23:45;3.63;;;1.90;;